METAR UND TAF INFORMATION

METAR FOR ESOW
ADDS - METARS form results

(0516 UTC 26 June 2022)
Data provider http://aviationweather.gov/metar/data/
 
METAR text: ESOW 260450Z AUTO VRB02KT 9999 R01///// R19/P2000N NCD 21/15 Q1019
Conditions at: ESOW (VASTERAS/HASSLO , SE) observed 0450 UTC 26 June 2022
Temperature: 21.0°C (70°F)
Dewpoint: 15.0°C (59°F) [RH = 69%]
Pressure (altimeter): 30.09 inches Hg (1019.0 mb)
Winds: variable direction winds at 2 MPH (2 knots; 1.0 m/s)
Visibility: 6 or more miles (10+ km)
Ceiling: at least 12,000 feet AGL
Clouds: sky clear below 12,000 feet AGL
Weather: no significant weather observed at this time

METAR text: ESOW 260420Z AUTO VRB03KT 9999 R01///// R19/P2000N NCD 20/14 Q1019
Conditions at: ESOW (VASTERAS/HASSLO , SE) observed 0420 UTC 26 June 2022
Temperature: 20.0°C (68°F)
Dewpoint: 14.0°C (57°F) [RH = 68%]
Pressure (altimeter): 30.09 inches Hg (1019.0 mb)
Winds: variable direction winds at 3 MPH (3 knots; 1.5 m/s)
Visibility: 6 or more miles (10+ km)
Ceiling: at least 12,000 feet AGL
Clouds: sky clear below 12,000 feet AGL
Weather: no significant weather observed at this time

 FLUGHAFENKARTE

 RUNWAY INFORMATION
Runway 01 Runway length 8468 ft Runway width 164 ft
Runway elevation 5 ft Runway displaced threshold 1312 ft Runway heading 8
Runway 19 Runway length 8468 ft Runway width 164 ft
Runway elevation 21 ft Runway displaced threshold 0 ft Runway heading 188

 AIRPORT FREQUENCIES
Type APP Name CON Frequency 125.95 MHZ
Type TWR Name TWR Frequency 130.6 MHZ

 AIRPORT NEAR NAVIGATION AIDS
Type VOR-DME Name Aros Frequency 112800 KHZ